Time;durP1;ratioP1;P1;durP2;ratioP2;P2;SDS_P1;SDS_P2;PMS_P1;PMS_P2;Temp;Humidity;BMP_temperature;BMP_pressure;BME280_temperature;BME280_humidity;BME280_pressure;Samples;Min_cycle;Max_cycle;Signal;HPM_P1;HPM_P2
2022/05/23 00:01:57;;;;;;;8.45;4.88;;;;;;;18.20;45.15;96347.34;5074088;28;20044;-55
2022/05/23 00:04:24;;;;;;;5.97;4.03;;;;;;;18.18;45.16;96332.19;5063520;28;20060;-56
2022/05/23 00:06:52;;;;;;;7.72;4.20;;;;;;;18.03;45.62;96301.72;5063935;28;20056;-55
2022/05/23 00:09:19;;;;;;;5.15;4.15;;;;;;;18.13;46.48;96347.50;5063989;28;20881;-54
2022/05/23 00:11:45;;;;;;;4.97;3.58;;;;;;;17.95;46.66;96321.94;5045572;28;20044;-55
2022/05/23 00:14:13;;;;;;;4.38;3.00;;;;;;;18.15;45.19;96356.28;5063480;28;20522;-57
2022/05/23 00:16:44;;;;;;;5.65;3.10;;;;;;;17.99;44.93;96333.81;5045076;28;20071;-55
2022/05/23 00:19:11;;;;;;;2.90;2.80;;;;;;;18.34;44.01;96335.78;5063250;28;20056;-54
2022/05/23 00:21:41;;;;;;;4.55;3.20;;;;;;;18.43;44.09;96338.03;5063445;28;20419;-54
2022/05/23 00:24:09;;;;;;;3.75;3.13;;;;;;;18.41;44.42;96330.03;5063753;28;20057;-55
2022/05/23 00:26:36;;;;;;;4.07;3.22;;;;;;;18.27;44.76;96341.59;5063438;28;20507;-54
2022/05/23 00:29:03;;;;;;;5.82;2.97;;;;;;;16.37;44.58;96054.75;5063169;28;20063;-55
2022/05/23 00:31:30;;;;;;;5.22;4.28;;;;;;;17.87;45.80;96340.13;5063542;28;20075;-55
2022/05/23 00:36:42;;;;;;;4.15;3.47;;;;;;;17.50;46.91;96276.91;5051076;28;20064;-56
2022/05/23 00:39:09;;;;;;;5.60;3.90;;;;;;;17.86;47.01;96330.16;5065824;28;20055;-54
2022/05/23 00:44:32;;;;;;;3.65;3.30;;;;;;;17.69;47.10;96328.50;5066900;28;20912;-55
2022/05/23 00:47:02;;;;;;;7.78;3.53;;;;;;;17.59;47.38;96329.56;5049077;28;20067;-57
2022/05/23 00:49:36;;;;;;;4.05;3.45;;;;;;;17.53;47.39;96336.88;5049377;28;20048;-54
2022/05/23 00:52:07;;;;;;;3.80;3.40;;;;;;;17.41;47.34;96320.69;5049613;28;20072;-55
2022/05/23 00:54:40;;;;;;;4.47;3.40;;;;;;;17.53;48.10;96336.88;5064492;28;20060;-57
2022/05/23 00:57:18;;;;;;;6.65;2.85;;;;;;;17.59;47.82;96340.75;5066998;28;20131;-55
2022/05/23 00:59:45;;;;;;;4.22;2.80;;;;;;;17.53;48.09;96362.09;5066898;28;20086;-54
2022/05/23 01:02:13;;;;;;;9.55;4.40;;;;;;;17.33;48.33;96344.47;5037523;28;20057;-55
2022/05/23 01:04:41;;;;;;;3.17;2.92;;;;;;;17.46;47.91;96348.22;5046850;28;20122;-55
2022/05/23 01:07:08;;;;;;;4.25;2.72;;;;;;;17.36;48.60;96354.78;5047163;28;20084;-55
2022/05/23 01:09:36;;;;;;;4.55;3.80;;;;;;;16.85;49.35;96285.50;5046470;28;20056;-57
2022/05/23 01:12:03;;;;;;;5.25;4.00;;;;;;;16.70;49.42;96284.16;5046543;28;20048;-55
2022/05/23 01:14:48;;;;;;;8.82;4.43;;;;;;;16.82;50.13;96291.94;5046451;28;20049;-56
2022/05/23 01:17:15;;;;;;;7.65;3.92;;;;;;;17.03;49.87;96330.69;5045916;28;20052;-57
2022/05/23 01:19:42;;;;;;;6.07;2.53;;;;;;;17.06;49.78;96335.41;5046398;28;20049;-55
2022/05/23 01:22:42;;;;;;;3.03;2.83;;;;;;;17.04;50.16;96332.28;5046715;28;20067;-55
2022/05/23 01:25:17;;;;;;;2.90;2.70;;;;;;;17.03;49.61;96319.47;5046100;28;20064;-56
2022/05/23 01:27:46;;;;;;;3.60;3.33;;;;;;;16.88;49.84;96323.78;5045830;28;20049;-56
2022/05/23 01:30:15;;;;;;;4.93;3.03;;;;;;;16.50;50.81;96298.91;5046223;28;20075;-55
2022/05/23 01:32:42;;;;;;;5.13;3.75;;;;;;;16.80;51.72;96325.13;5045598;28;20053;-57
2022/05/23 01:35:10;;;;;;;5.95;3.92;;;;;;;16.76;51.47;96332.78;5046285;28;20049;-55
2022/05/23 01:37:37;;;;;;;3.95;3.08;;;;;;;16.54;52.66;96315.63;5046367;28;20057;-55
2022/05/23 01:40:06;;;;;;;3.58;3.28;;;;;;;16.26;52.38;96260.19;5046280;28;20053;-55
2022/05/23 01:42:33;;;;;;;4.55;3.35;;;;;;;16.67;51.53;96313.00;5028261;28;20107;-55
2022/05/23 01:45:00;;;;;;;5.15;3.90;;;;;;;16.28;52.26;96275.31;5045287;28;20482;-55
2022/05/23 01:47:27;;;;;;;9.10;4.82;;;;;;;16.51;52.97;96317.28;5045986;28;20052;-55
2022/05/23 01:49:54;;;;;;;6.40;4.18;;;;;;;16.16;53.36;96312.25;5027502;28;20057;-54
2022/05/23 01:52:20;;;;;;;5.55;3.45;;;;;;;16.19;53.71;96328.16;5045862;28;20053;-55
2022/05/23 01:54:47;;;;;;;3.00;2.70;;;;;;;15.87;53.46;96277.59;5040539;28;20069;-56
2022/05/23 01:57:14;;;;;;;4.93;2.97;;;;;;;16.09;53.26;96311.59;5025740;28;20049;-55
2022/05/23 02:02:26;;;;;;;7.72;3.75;;;;;;;15.71;55.07;96308.16;5038267;28;20485;-56
2022/05/23 02:04:54;;;;;;;3.72;3.40;;;;;;;15.87;54.63;96315.94;5045031;28;20053;-56
2022/05/23 02:07:21;;;;;;;4.15;3.03;;;;;;;15.59;55.37;96321.91;5045238;28;20055;-55
2022/05/23 02:09:48;;;;;;;5.05;3.00;;;;;;;15.64;54.87;96308.28;5045727;28;20056;-55
2022/05/23 02:12:19;;;;;;;4.32;2.85;;;;;;;15.68;55.07;96306.22;5045257;28;20518;-55
2022/05/23 02:14:48;;;;;;;5.25;2.92;;;;;;;15.82;54.25;96310.81;5045273;28;20052;-57
2022/05/23 02:17:15;;;;;;;5.20;3.17;;;;;;;15.53;55.89;96324.41;5027518;28;20234;-54
2022/05/23 02:19:42;;;;;;;6.25;3.67;;;;;;;15.59;55.70;96300.38;5045262;28;20061;-55
2022/05/23 02:22:09;;;;;;;5.70;3.08;;;;;;;15.64;55.65;96313.88;5045383;28;20053;-56
2022/05/23 02:24:35;;;;;;;4.10;3.13;;;;;;;15.70;55.05;96353.25;5045499;28;20534;-55
2022/05/23 02:27:03;;;;;;;5.93;4.05;;;;;;;15.27;58.11;96322.31;5045011;28;20064;-57
2022/05/23 02:29:30;;;;;;;7.45;4.22;;;;;;;14.94;58.14;96264.56;5027136;28;20057;-56
2022/05/23 02:31:56;;;;;;;4.50;3.10;;;;;;;14.69;59.98;96328.19;5044943;28;20060;-56
2022/05/23 02:34:23;;;;;;;6.00;2.78;;;;;;;14.35;61.17;96308.59;5044832;28;20057;-55
2022/05/23 02:36:50;;;;;;;4.80;3.08;;;;;;;14.65;60.98;96327.44;5044964;28;20455;-56
2022/05/23 02:39:17;;;;;;;6.43;2.80;;;;;;;14.70;59.68;96321.41;5044918;28;20045;-57
2022/05/23 02:41:44;;;;;;;3.97;2.45;;;;;;;14.32;60.56;96250.16;5045198;28;20049;-55
2022/05/23 02:44:11;;;;;;;3.67;2.45;;;;;;;14.22;60.28;96248.22;5044607;28;20519;-54
2022/05/23 02:46:38;;;;;;;4.20;3.03;;;;;;;14.74;60.11;96316.59;5044479;28;20442;-56
2022/05/23 02:49:06;;;;;;;2.65;2.45;;;;;;;14.62;61.05;96325.47;5044084;28;20052;-57
2022/05/23 02:51:34;;;;;;;5.13;2.80;;;;;;;14.51;62.00;96325.56;5026442;28;20076;-54
2022/05/23 02:54:00;;;;;;;10.45;3.13;;;;;;;14.71;61.33;96323.78;5044207;28;20048;-54
2022/05/23 02:56:27;;;;;;;3.17;2.30;;;;;;;14.66;60.41;96296.38;5063260;28;20473;-54
2022/05/23 02:58:54;;;;;;;5.78;3.50;;;;;;;14.99;58.97;96328.25;5063874;28;20049;-56
2022/05/23 03:01:21;;;;;;;3.95;2.78;;;;;;;14.87;60.11;96331.59;5059938;28;20048;-53
2022/05/23 03:03:47;;;;;;;3.03;2.80;;;;;;;13.96;63.21;96293.44;5044284;28;20053;-54
2022/05/23 03:06:14;;;;;;;3.35;2.78;;;;;;;14.36;62.63;96296.28;5044156;28;20118;-54
2022/05/23 03:08:41;;;;;;;5.70;2.88;;;;;;;14.71;61.54;96323.00;5026380;28;20056;-53
2022/05/23 03:11:08;;;;;;;5.85;2.70;;;;;;;14.77;61.27;96389.03;5044011;28;20052;-55
2022/05/23 03:13:36;;;;;;;4.70;2.22;;;;;;;14.85;60.58;96342.34;5026213;28;20048;-54
2022/05/23 03:16:11;;;;;;;9.00;3.97;;;;;;;14.46;62.74;96319.66;5044242;28;20505;-55
2022/05/23 03:18:38;;;;;;;6.95;3.63;;;;;;;14.38;61.42;96270.78;5044157;28;20475;-55
2022/05/23 03:26:58;;;;;;;8.65;3.78;;;;;;;14.62;62.08;96347.78;5043985;28;20526;-55
2022/05/23 03:27:01;;;;;;;5.35;3.03;;;;;;;14.66;61.82;96354.09;5044349;28;20065;-54
2022/05/23 03:29:28;;;;;;;5.78;2.72;;;;;;;14.62;62.77;96350.56;5043907;28;20064;-56
2022/05/23 03:31:56;;;;;;;4.65;2.70;;;;;;;14.89;61.24;96351.47;5044219;28;20472;-54
2022/05/23 03:34:23;;;;;;;4.93;2.63;;;;;;;14.90;61.29;96337.13;5043461;28;20056;-54
2022/05/23 03:36:51;;;;;;;5.25;3.53;;;;;;;15.22;61.18;96353.50;5044311;28;20057;-56
2022/05/23 03:39:17;;;;;;;5.72;3.15;;;;;;;15.31;61.06;96362.13;5043716;28;20578;-54
2022/05/23 03:41:44;;;;;;;7.05;3.22;;;;;;;15.26;60.24;96357.00;5025528;28;20060;-54
2022/05/23 03:44:11;;;;;;;4.38;2.70;;;;;;;15.49;58.76;96357.13;5043530;28;20057;-55
2022/05/23 03:46:38;;;;;;;6.95;3.80;;;;;;;15.73;58.55;96361.59;5043253;28;20060;-56
2022/05/23 03:49:08;;;;;;;8.02;5.25;;;;;;;15.38;58.69;96300.66;5025936;28;20530;-54
2022/05/23 03:51:37;;;;;;;7.95;5.15;;;;;;;16.03;58.18;96336.41;5025549;28;20507;-56
2022/05/23 03:54:04;;;;;;;17.20;7.55;;;;;;;15.73;57.30;96277.06;5043578;28;20052;-55
2022/05/23 03:56:31;;;;;;;18.08;7.97;;;;;;;16.34;56.78;96334.31;5006063;28;20145;-55
2022/05/23 03:58:58;;;;;;;20.98;7.63;;;;;;;16.66;56.46;96336.59;5023488;28;20064;-54
2022/05/23 04:01:27;;;;;;;15.75;7.45;;;;;;;16.87;55.34;96344.56;5012878;28;20581;-54
2022/05/23 04:03:54;;;;;;;11.23;6.45;;;;;;;16.99;55.58;96338.38;5063975;28;20056;-54
2022/05/23 04:06:20;;;;;;;9.20;5.78;;;;;;;17.02;55.02;96337.50;5063732;28;20110;-55
2022/05/23 04:08:47;;;;;;;8.27;4.97;;;;;;;17.30;54.46;96350.94;5063080;28;20053;-57
2022/05/23 04:11:14;;;;;;;8.43;5.00;;;;;;;17.33;54.20;96350.06;5063276;28;20055;-54
2022/05/23 04:13:40;;;;;;;8.60;4.55;;;;;;;16.29;58.04;96243.38;5066560;28;20044;-55
2022/05/23 04:16:08;;;;;;;3.53;2.97;;;;;;;15.62;64.66;96352.56;5067360;28;20415;-55
2022/05/23 04:18:36;;;;;;;5.07;3.08;;;;;;;14.82;66.92;96335.63;5067144;28;20051;-55
2022/05/23 04:21:03;;;;;;;6.78;3.42;;;;;;;15.21;66.55;96351.13;5049704;28;20059;-55
2022/05/23 04:23:30;;;;;;;4.80;3.03;;;;;;;15.62;66.06;96349.78;5067231;28;20055;-55
2022/05/23 04:26:02;;;;;;;5.50;3.20;;;;;;;15.89;64.03;96347.81;5067187;28;20139;-56
2022/05/23 04:28:30;;;;;;;5.13;3.00;;;;;;;15.62;62.67;96257.66;5067188;28;20497;-55
2022/05/23 04:30:56;;;;;;;3.85;2.80;;;;;;;16.30;62.51;96331.59;5066937;28;20052;-55
2022/05/23 04:36:09;;;;;;;4.35;3.15;;;;;;;16.49;61.64;96313.31;5067291;28;20052;-55
2022/05/23 04:38:42;;;;;;;10.40;3.63;;;;;;;16.72;61.24;96343.28;5066510;28;20085;-55
2022/05/23 04:41:10;;;;;;;6.18;3.47;;;;;;;16.45;61.50;96290.22;5066799;28;20053;-55
2022/05/23 04:43:36;;;;;;;7.10;3.38;;;;;;;16.81;60.84;96277.16;5066715;28;20048;-55
2022/05/23 04:46:03;;;;;;;3.92;3.33;;;;;;;17.22;61.15;96344.69;5066673;28;20059;-55
2022/05/23 04:51:15;;;;;;;7.00;3.80;;;;;;;17.08;63.06;96333.78;5067131;28;20146;-54
2022/05/23 04:53:41;;;;;;;6.07;3.20;;;;;;;17.39;62.45;96354.72;5066632;28;20059;-57
2022/05/23 04:56:08;;;;;;;5.85;3.53;;;;;;;17.54;61.36;96350.47;5082889;28;20063;-55
2022/05/23 04:58:35;;;;;;;6.68;3.22;;;;;;;17.87;58.24;96351.31;5086871;28;20330;-55
2022/05/23 05:01:02;;;;;;;5.10;3.75;;;;;;;18.08;57.70;96348.06;5086479;28;20051;-55
2022/05/23 05:03:29;;;;;;;9.70;4.28;;;;;;;18.28;56.31;96337.53;5048324;28;20044;-57
2022/05/23 05:05:55;;;;;;;12.50;4.72;;;;;;;18.51;57.44;96340.19;5066199;28;20052;-54
2022/05/23 05:08:22;;;;;;;7.70;3.80;;;;;;;18.56;56.16;96342.47;5066283;28;20109;-55
2022/05/23 05:10:49;;;;;;;10.90;4.88;;;;;;;18.24;60.70;96348.03;5066485;28;20423;-53
2022/05/23 05:13:15;;;;;;;7.90;3.80;;;;;;;18.39;57.30;96349.31;5066252;28;20513;-55
2022/05/23 05:15:42;;;;;;;5.90;3.47;;;;;;;18.25;58.26;96282.34;5066205;28;20044;-55
2022/05/23 05:18:09;;;;;;;8.15;3.67;;;;;;;18.73;58.60;96324.38;5048157;28;20550;-56
2022/05/23 05:20:35;;;;;;;4.78;3.55;;;;;;;19.08;58.08;96322.63;5066373;28;20473;-55
2022/05/23 05:23:02;;;;;;;6.60;3.40;;;;;;;18.70;59.22;96291.59;5066315;28;20511;-57
2022/05/23 05:25:29;;;;;;;6.13;3.80;;;;;;;19.23;58.17;96324.63;5047480;28;20056;-55
2022/05/23 05:27:55;;;;;;;5.32;3.92;;;;;;;19.46;56.81;96318.75;5066238;28;20048;-54
2022/05/23 05:30:23;;;;;;;9.80;4.38;;;;;;;19.58;56.62;96320.78;5066068;28;20053;-55
2022/05/23 05:33:09;;;;;;;7.53;3.75;;;;;;;19.89;55.49;96320.28;5048038;28;20430;-56
2022/05/23 05:35:40;;;;;;;6.95;4.07;;;;;;;20.19;53.60;96322.56;5048293;28;20057;-55
2022/05/23 05:38:16;;;;;;;4.93;3.35;;;;;;;20.27;51.18;96292.97;5066263;28;20072;-55
2022/05/23 05:40:45;;;;;;;3.92;3.15;;;;;;;20.79;48.84;96352.31;5066078;28;20055;-55
2022/05/23 05:43:18;;;;;;;3.63;3.20;;;;;;;21.07;44.04;96326.00;5065971;28;20061;-56
2022/05/23 05:45:53;;;;;;;4.35;3.53;;;;;;;21.24;43.67;96316.16;5059730;28;20044;-61
2022/05/23 05:48:20;;;;;;;3.70;3.30;;;;;;;21.09;43.14;96272.06;5048154;28;20110;-56
2022/05/23 05:50:49;;;;;;;6.65;4.22;;;;;;;21.67;42.07;96318.94;5065141;28;20106;-57
2022/05/23 05:53:28;;;;;;;21.13;5.75;;;;;;;21.68;43.28;96326.16;5064331;28;20048;-58
2022/05/23 05:55:55;;;;;;;11.85;4.78;;;;;;;20.79;43.02;96321.34;5063929;28;20060;-57
2022/05/23 05:58:21;;;;;;;5.57;3.53;;;;;;;20.91;43.66;96295.19;5046585;28;20109;-60
2022/05/23 06:00:48;;;;;;;14.38;4.60;;;;;;;21.46;42.75;96327.41;5064569;28;20067;-55
2022/05/23 06:03:16;;;;;;;3.67;3.38;;;;;;;21.02;41.49;96311.75;5064469;28;20052;-65
2022/05/23 06:11:23;;;;;;;12.95;3.78;;;;;;;21.37;38.91;96311.22;5064070;28;20048;-58
2022/05/23 06:14:03;;;;;;;5.95;3.88;;;;;;;21.76;39.33;96316.22;5064334;28;20044;-55
2022/05/23 06:16:32;;;;;;;4.07;3.70;;;;;;;21.92;39.86;96321.66;5058252;28;20037;-56
2022/05/23 06:18:59;;;;;;;3.92;3.60;;;;;;;21.86;40.55;96312.19;5063570;28;20044;-58
2022/05/23 06:21:27;;;;;;;5.45;3.63;;;;;;;21.61;40.31;96281.31;5063268;28;20044;-60
2022/05/23 06:23:55;;;;;;;10.90;4.35;;;;;;;21.43;41.28;96309.41;5063484;28;20231;-57
2022/05/23 06:26:26;;;;;;;14.57;3.83;;;;;;;21.91;41.58;96311.59;5061315;28;20586;-62
2022/05/23 06:28:53;;;;;;;4.85;3.75;;;;;;;22.34;39.52;96314.31;5062279;28;20055;-58
2022/05/23 06:31:20;;;;;;;5.75;3.70;;;;;;;22.09;39.31;96266.56;5062024;28;20071;-55
2022/05/23 06:33:47;;;;;;;4.25;3.67;;;;;;;22.21;38.92;96257.19;5045190;28;20040;-54
2022/05/23 06:36:15;;;;;;;6.57;5.32;;;;;;;22.57;38.22;96283.97;5062579;28;20715;-55
2022/05/23 06:38:42;;;;;;;12.52;6.35;;;;;;;22.31;37.56;96283.41;5063737;28;20083;-58
2022/05/23 06:41:10;;;;;;;7.95;4.95;;;;;;;22.27;38.71;96282.78;5062955;28;20048;-55
2022/05/23 06:43:39;;;;;;;4.72;3.85;;;;;;;22.80;38.23;96320.09;5063457;28;20507;-56
2022/05/23 06:46:06;;;;;;;4.00;3.70;;;;;;;23.01;37.45;96319.19;5045761;28;20059;-58
2022/05/23 06:48:34;;;;;;;7.80;4.45;;;;;;;23.18;37.47;96311.97;5051082;28;20049;-60
2022/05/23 06:51:01;;;;;;;5.15;3.78;;;;;;;23.18;37.17;96278.06;5062868;28;20049;-61
2022/05/23 06:53:29;;;;;;;6.40;3.83;;;;;;;23.47;37.67;96306.66;5064031;28;20075;-60
2022/05/23 06:55:56;;;;;;;7.35;4.10;;;;;;;23.56;36.51;96303.81;5063724;28;20063;-63
2022/05/23 06:58:23;;;;;;;6.93;4.70;;;;;;;23.06;36.34;96247.94;5063390;28;20064;-65
2022/05/23 07:00:52;;;;;;;4.82;4.10;;;;;;;23.53;34.77;96299.09;5063745;28;20056;-66
2022/05/23 07:03:20;;;;;;;3.78;3.58;;;;;;;23.34;34.65;96266.47;5063622;28;20052;-61
2022/05/23 07:14:02;;;;;;;5.32;3.50;;;;;;;23.40;33.48;96340.88;5062837;28;20052;-67
2022/05/23 07:16:31;;;;;;;4.95;4.32;;;;;;;23.65;34.09;96306.63;5063081;28;20052;-65
2022/05/23 07:18:58;;;;;;;7.07;4.05;;;;;;;23.02;34.89;96300.97;5061507;28;20229;-59
2022/05/23 07:21:25;;;;;;;4.10;3.72;;;;;;;23.57;34.39;96299.72;5062128;28;20270;-59
2022/05/23 07:23:52;;;;;;;4.10;3.80;;;;;;;23.82;33.82;96302.19;5063014;28;20047;-62
2022/05/23 07:26:20;;;;;;;3.88;3.63;;;;;;;23.84;33.70;96302.50;5062104;28;20045;-59
2022/05/23 07:28:48;;;;;;;4.40;4.00;;;;;;;23.29;34.33;96219.84;5062312;28;20053;-60
2022/05/23 07:31:16;;;;;;;4.05;3.58;;;;;;;23.43;33.82;96318.13;5063341;28;20079;-65
2022/05/23 07:33:44;;;;;;;4.30;3.90;;;;;;;23.41;34.55;96297.25;5062887;28;20048;-60
2022/05/23 07:36:12;;;;;;;4.00;3.60;;;;;;;23.44;34.58;96304.78;5042816;28;20140;-64
2022/05/23 07:38:39;;;;;;;6.25;3.85;;;;;;;23.51;34.03;96312.91;5062054;28;20125;-65
2022/05/23 07:41:08;;;;;;;3.53;3.33;;;;;;;22.80;33.66;96201.47;5063730;28;20800;-67
2022/05/23 07:43:36;;;;;;;4.20;4.00;;;;;;;23.51;33.92;96295.97;5063023;28;20060;-59
2022/05/23 07:46:09;;;;;;;3.67;3.47;;;;;;;23.46;32.77;96293.75;5062258;28;20497;-60
2022/05/23 07:48:38;;;;;;;3.80;3.47;;;;;;;23.57;32.24;96308.19;5063121;28;20480;-64
2022/05/23 07:51:05;;;;;;;3.88;3.65;;;;;;;23.70;32.62;96303.16;5061611;28;20060;-62
2022/05/23 08:01:49;;;;;;;6.32;3.90;;;;;;;23.63;33.68;96320.47;5062915;28;20049;-58
2022/05/23 08:04:16;;;;;;;3.90;3.67;;;;;;;23.82;33.68;96305.03;5066563;28;20061;-61
2022/05/23 08:06:44;;;;;;;4.90;3.88;;;;;;;24.15;32.10;96296.63;5044090;28;20056;-63
2022/05/23 08:09:11;;;;;;;3.63;3.35;;;;;;;24.27;32.00;96307.72;5061790;28;20037;-60
2022/05/23 08:11:40;;;;;;;4.93;4.53;;;;;;;24.01;31.50;96241.50;5044105;28;20055;-61
2022/05/23 08:14:06;;;;;;;4.32;3.85;;;;;;;24.14;31.47;96307.13;5061294;28;20056;-59
2022/05/23 08:16:35;;;;;;;5.03;3.72;;;;;;;24.14;31.12;96247.72;5063418;28;20056;-62
2022/05/23 08:19:06;;;;;;;3.72;3.53;;;;;;;24.38;30.76;96295.88;5062236;28;20353;-59
2022/05/23 08:21:34;;;;;;;6.72;3.78;;;;;;;24.41;30.57;96284.38;5061799;28;20052;-61
2022/05/23 08:24:01;;;;;;;3.80;3.60;;;;;;;24.41;30.80;96278.72;5044101;28;20533;-62
2022/05/23 08:26:28;;;;;;;5.05;3.88;;;;;;;24.33;30.74;96294.47;5044340;28;20418;-64
2022/05/23 08:28:54;;;;;;;3.35;3.25;;;;;;;23.89;31.54;96254.53;5061711;28;20052;-64
2022/05/23 08:31:21;;;;;;;5.15;4.40;;;;;;;24.41;31.20;96287.22;5061678;28;20058;-61
2022/05/23 08:33:49;;;;;;;6.38;4.00;;;;;;;23.89;30.36;96250.94;5050798;28;20052;-63
2022/05/23 08:36:16;;;;;;;4.20;3.47;;;;;;;23.97;30.81;96277.66;5044142;28;20052;-56
2022/05/23 08:38:43;;;;;;;8.10;3.67;;;;;;;24.40;30.83;96294.16;5062640;28;20132;-62
2022/05/23 08:41:15;;;;;;;3.97;3.67;;;;;;;24.55;30.30;96289.34;5062480;28;20044;-63
2022/05/23 08:43:50;;;;;;;4.00;3.70;;;;;;;24.59;30.47;96278.63;5062086;28;20501;-57
2022/05/23 08:46:26;;;;;;;3.67;3.38;;;;;;;24.52;31.24;96273.31;5062145;28;20812;-60
2022/05/23 08:49:06;;;;;;;5.85;4.55;;;;;;;24.90;31.44;96273.41;5061479;28;20106;-60
2022/05/23 08:51:49;;;;;;;4.20;3.80;;;;;;;24.39;29.63;96196.28;5042839;28;20057;-61
2022/05/23 08:54:27;;;;;;;3.92;3.72;;;;;;;24.57;29.91;96230.16;5059624;28;20044;-67
2022/05/23 08:56:56;;;;;;;4.05;3.78;;;;;;;24.74;30.57;96284.38;5062276;28;20060;-57
2022/05/23 08:59:31;;;;;;;4.40;4.10;;;;;;;24.96;30.09;96285.63;5062759;28;20055;-61
2022/05/23 09:02:01;;;;;;;4.00;3.70;;;;;;;25.08;29.96;96278.16;5066462;28;20534;-58
2022/05/23 09:04:42;;;;;;;5.20;4.72;;;;;;;25.24;28.87;96283.38;5065152;28;20522;-58
2022/05/23 09:07:20;;;;;;;4.30;3.97;;;;;;;25.28;29.03;96281.91;5066010;28;20071;-59
2022/05/23 09:09:47;;;;;;;4.45;4.05;;;;;;;25.28;29.70;96284.75;5065981;28;20048;-63
2022/05/23 09:12:15;;;;;;;3.97;3.78;;;;;;;25.43;29.26;96278.34;5065040;28;20063;-57
2022/05/23 09:14:42;;;;;;;4.25;3.88;;;;;;;25.59;29.41;96280.72;5047263;28;20082;-57
2022/05/23 09:17:23;;;;;;;4.35;4.03;;;;;;;25.66;28.46;96251.97;5065384;28;20497;-59
2022/05/23 09:20:00;;;;;;;4.50;4.30;;;;;;;26.02;28.03;96285.66;5058529;28;20080;-57
2022/05/23 09:22:34;;;;;;;4.15;3.95;;;;;;;25.78;28.22;96270.75;5064139;28;20045;-59
2022/05/23 09:25:04;;;;;;;4.03;3.55;;;;;;;25.55;28.39;96271.63;5065863;28;20053;-59
2022/05/23 09:27:30;;;;;;;4.30;4.07;;;;;;;25.84;28.10;96263.91;5065743;28;20048;-59
2022/05/23 09:29:58;;;;;;;4.72;4.32;;;;;;;25.94;28.51;96261.75;5065834;28;20064;-61
2022/05/23 09:32:32;;;;;;;16.92;8.07;;;;;;;25.60;28.52;96211.38;5047954;28;20079;-60
2022/05/23 09:35:01;;;;;;;15.52;6.63;;;;;;;26.02;28.29;96262.97;5065673;28;20434;-62
2022/05/23 09:37:45;;;;;;;5.22;4.75;;;;;;;25.17;28.14;96185.31;5065222;28;20127;-66
2022/05/23 09:40:27;;;;;;;4.50;4.03;;;;;;;25.38;27.74;96191.91;5051210;28;20045;-65
2022/05/23 09:49:17;;;;;;;6.72;4.70;;;;;;;25.59;26.92;96192.78;5061292;28;20135;-59
2022/05/23 09:51:52;;;;;;;6.15;5.55;;;;;;;25.85;27.33;96276.03;5065212;28;20050;-61
2022/05/23 09:54:44;;;;;;;16.88;8.88;;;;;;;25.84;26.64;96260.28;5065161;28;20060;-60
2022/05/23 09:57:48;;;;;;;5.35;4.78;;;;;;;25.75;27.79;96257.56;5065145;28;20066;-61
2022/05/23 10:00:17;;;;;;;23.77;9.18;;;;;;;25.92;26.26;96264.28;5064306;28;20049;-61
2022/05/23 10:02:54;;;;;;;4.93;4.03;;;;;;;25.65;27.13;96244.72;5046263;28;20048;-59
2022/05/23 10:05:28;;;;;;;19.30;9.05;;;;;;;24.56;27.88;96081.34;5059799;28;20499;-58
2022/05/23 10:08:01;;;;;;;4.50;4.30;;;;;;;25.74;26.79;96255.97;5063603;28;20079;-61
2022/05/23 10:10:32;;;;;;;6.18;4.68;;;;;;;25.83;27.23;96255.88;5040619;28;20514;-65
2022/05/23 10:13:17;;;;;;;5.72;4.65;;;;;;;26.05;27.46;96244.94;5064618;28;20048;-58
2022/05/23 10:15:49;;;;;;;6.45;4.75;;;;;;;26.16;27.32;96239.44;5064081;28;20131;-62
2022/05/23 10:18:23;;;;;;;4.57;4.20;;;;;;;25.99;25.97;96255.38;5063106;28;20056;-65
2022/05/23 10:20:54;;;;;;;4.15;3.95;;;;;;;25.93;24.50;96231.78;5064577;28;20048;-65
2022/05/23 10:23:30;;;;;;;6.95;4.90;;;;;;;25.78;25.32;96191.31;5063744;28;20041;-59
2022/05/23 10:26:03;;;;;;;4.25;3.95;;;;;;;26.14;25.39;96237.09;5044814;28;20049;-62
2022/05/23 10:28:55;;;;;;;4.50;4.20;;;;;;;26.06;25.11;96240.81;5048371;28;20056;-57
2022/05/23 10:31:33;;;;;;;4.63;4.22;;;;;;;26.11;24.88;96209.69;5063873;28;20310;-59
2022/05/23 10:34:08;;;;;;;3.95;3.65;;;;;;;26.19;26.71;96229.94;5063546;28;20060;-59
2022/05/23 10:36:38;;;;;;;4.32;3.97;;;;;;;26.60;26.42;96228.72;5064226;28;20071;-58
2022/05/23 10:42:11;;;;;;;4.97;4.65;;;;;;;26.69;25.86;96191.66;5045962;28;20057;-58
2022/05/23 10:44:53;;;;;;;4.68;4.35;;;;;;;27.07;25.35;96204.78;5045791;28;20079;-63
2022/05/23 10:47:23;;;;;;;4.70;4.50;;;;;;;27.11;25.77;96217.50;5044801;28;20051;-63
2022/05/23 10:50:06;;;;;;;4.82;4.38;;;;;;;27.10;25.35;96221.66;5063960;28;20443;-59
2022/05/23 10:52:46;;;;;;;4.75;4.35;;;;;;;27.39;25.08;96210.13;5064172;28;20076;-58
2022/05/23 10:55:21;;;;;;;5.35;4.90;;;;;;;27.49;23.99;96211.50;5045021;28;20533;-58
2022/05/23 10:58:23;;;;;;;4.72;4.53;;;;;;;27.38;24.71;96219.16;5063188;28;20052;-63
2022/05/23 11:01:17;;;;;;;5.03;4.63;;;;;;;27.58;24.76;96196.31;5057917;28;20052;-60
2022/05/23 11:04:09;;;;;;;4.80;4.60;;;;;;;27.34;24.82;96202.28;5051523;28;20477;-57
2022/05/23 11:07:09;;;;;;;4.95;4.63;;;;;;;27.37;25.83;96201.28;5063069;28;20064;-58
2022/05/23 11:10:09;;;;;;;5.63;4.05;;;;;;;26.98;24.81;96256.91;5030888;28;20052;-58
2022/05/23 11:13:14;;;;;;;4.20;4.00;;;;;;;26.65;25.27;96208.16;5060904;28;20052;-62
2022/05/23 11:16:16;;;;;;;4.25;4.05;;;;;;;26.53;25.02;96183.69;5041020;28;20060;-60
2022/05/23 11:19:03;;;;;;;4.55;4.10;;;;;;;26.71;24.39;96189.13;5062717;28;20094;-63
2022/05/23 11:21:41;;;;;;;4.70;4.40;;;;;;;26.11;24.53;96079.09;5053538;28;20056;-60
2022/05/23 11:24:13;;;;;;;4.30;4.07;;;;;;;26.80;25.17;96186.13;5061207;28;20053;-58
2022/05/23 11:26:48;;;;;;;4.70;4.40;;;;;;;26.42;23.82;96155.13;5043501;28;20040;-58
2022/05/23 11:35:00;;;;;;;4.20;4.05;;;;;;;26.81;24.08;96184.84;5055644;28;20048;-60
2022/05/23 11:37:45;;;;;;;4.18;3.97;;;;;;;26.65;24.94;96176.91;5025573;28;20053;-60
2022/05/23 11:40:30;;;;;;;4.32;4.13;;;;;;;26.92;24.06;96187.81;5061000;28;20328;-59
2022/05/23 11:43:18;;;;;;;3.83;3.63;;;;;;;27.09;23.51;96174.59;5062498;28;20052;-60
2022/05/23 11:46:00;;;;;;;4.72;4.30;;;;;;;27.13;24.15;96175.13;5043515;28;20056;-59
2022/05/23 11:48:45;;;;;;;6.35;4.80;;;;;;;27.06;24.60;96186.19;5043134;28;20061;-60
2022/05/23 11:51:24;;;;;;;3.95;3.85;;;;;;;27.06;22.29;96164.22;5043417;28;20057;-58
2022/05/23 11:54:00;;;;;;;5.68;4.55;;;;;;;27.24;22.58;96169.56;5041982;28;20538;-58
2022/05/23 11:56:48;;;;;;;4.47;4.15;;;;;;;27.47;23.36;96165.72;5043155;28;20065;-60
2022/05/23 11:59:24;;;;;;;4.32;4.13;;;;;;;27.09;24.65;96160.38;5041949;28;20052;-59
2022/05/23 12:02:12;;;;;;;4.45;4.25;;;;;;;27.26;24.51;96161.34;5043195;28;20053;-59
2022/05/23 12:04:51;;;;;;;6.72;4.25;;;;;;;27.57;24.75;96158.53;5043672;28;20052;-61
2022/05/23 12:07:31;;;;;;;3.65;3.45;;;;;;;27.52;24.10;96179.19;5043402;28;20049;-60
2022/05/23 12:10:30;;;;;;;4.32;4.13;;;;;;;27.24;22.68;96158.19;5025301;28;20048;-59
2022/05/23 12:13:15;;;;;;;3.80;3.70;;;;;;;27.35;22.40;96158.34;5031423;28;20067;-61
2022/05/23 12:15:41;;;;;;;4.05;3.85;;;;;;;27.49;23.26;96163.13;5043267;28;20056;-61
2022/05/23 12:18:34;;;;;;;4.10;3.90;;;;;;;27.34;23.51;96173.84;5042941;28;20064;-58
2022/05/23 12:21:36;;;;;;;4.25;3.95;;;;;;;27.26;24.54;96167.03;5037991;28;20053;-59
2022/05/23 12:24:29;;;;;;;5.20;4.55;;;;;;;27.20;25.02;96169.03;5052080;28;20546;-59
2022/05/23 12:27:31;;;;;;;4.10;3.90;;;;;;;27.38;24.75;96163.00;5046917;28;20102;-57
2022/05/23 12:30:21;;;;;;;4.50;4.20;;;;;;;28.01;23.78;96153.22;5062383;28;20051;-62
2022/05/23 12:33:05;;;;;;;4.85;4.65;;;;;;;28.48;23.56;96125.31;5054306;28;20044;-62
2022/05/23 12:35:53;;;;;;;4.68;4.18;;;;;;;29.59;22.31;96175.72;5065603;28;20075;-63
2022/05/23 12:38:44;;;;;;;5.10;4.68;;;;;;;30.54;22.11;96166.59;5047879;28;20052;-59
2022/05/23 12:41:35;;;;;;;4.70;4.47;;;;;;;30.79;21.01;96168.38;5064962;28;20611;-61
2022/05/23 12:44:39;;;;;;;5.25;4.82;;;;;;;30.16;21.42;96167.41;5066639;28;20056;-62
2022/05/23 12:47:42;;;;;;;5.20;4.90;;;;;;;30.48;22.03;96173.63;5066614;28;20126;-63
2022/05/23 12:50:14;;;;;;;4.82;4.63;;;;;;;31.70;19.16;96159.56;5065081;28;20227;-58